Archival Weather

Abadan

Abadan, Iran (OIAA)

Report from: Thursday, September 21, 2023 11:00 AM UTC
Current time: Saturday, March 2, 2024 10:28 AM UTC

Current weather – Weather history – Daily summaries
Weather forecast

Temperature44.0°C (111.2°F)
Heat index40.8°C (105.4°F)
Dew point4.0°C (39.2°F)
Winds 10 kts (5.1 m/s, 11.5 mph) Northwest (310°)
Clouds Sky clear
Altimeter29.68 in.Hg (1005 mB)
Relative humidity9 %
Density altitude3,631 ft. (1,107 m)
Remarks Ceiling and visibility OK
Flight conditions Visual Meteorological Conditions
Raw dataOIAA 211100Z 31010KT CAVOK 44/04 Q1005
An error has occurred. This application may no longer respond until reloaded. Reload 🗙